sensor_id;sensor_type;location;lat;lon;timestamp;pressure;altitude;pressure_sealevel;temperature;humidity
29385;BME280;16367;48.736;9.218;2022-07-18T00:00:30;-23812.41;;;20.47;39.08
29385;BME280;16367;48.736;9.218;2022-07-18T00:02:33;-23809.75;;;20.38;39.36
29385;BME280;16367;48.736;9.218;2022-07-18T00:04:36;-23803.47;;;20.18;40.21
29385;BME280;16367;48.736;9.218;2022-07-18T00:06:39;-23800.63;;;20.09;40.50
29385;BME280;16367;48.736;9.218;2022-07-18T00:08:41;-23799.06;;;20.04;40.26
29385;BME280;16367;48.736;9.218;2022-07-18T00:10:45;-23798.28;;;20.01;41.25
29385;BME280;16367;48.736;9.218;2022-07-18T00:12:48;-23798.44;;;20.02;40.66
29385;BME280;16367;48.736;9.218;2022-07-18T00:14:51;-23795.78;;;19.93;40.65
29385;BME280;16367;48.736;9.218;2022-07-18T00:16:53;-23793.41;;;19.86;41.24
29385;BME280;16367;48.736;9.218;2022-07-18T00:18:56;-23793.25;;;19.85;40.55
29385;BME280;16367;48.736;9.218;2022-07-18T00:21:01;-23789.19;;;19.72;41.74
29385;BME280;16367;48.736;9.218;2022-07-18T00:23:04;-23792.00;;;19.81;40.90
29385;BME280;16367;48.736;9.218;2022-07-18T00:25:07;-23785.72;;;19.61;41.85
29385;BME280;16367;48.736;9.218;2022-07-18T00:27:11;-23786.97;;;19.65;41.58
29385;BME280;16367;48.736;9.218;2022-07-18T00:29:13;-23782.28;;;19.50;42.05
29385;BME280;16367;48.736;9.218;2022-07-18T00:31:16;-23779.44;;;19.41;43.10
29385;BME280;16367;48.736;9.218;2022-07-18T00:33:19;-23780.53;;;19.45;42.60
29385;BME280;16367;48.736;9.218;2022-07-18T00:35:21;-23783.53;;;19.54;42.72
29385;BME280;16367;48.736;9.218;2022-07-18T00:37:24;-23779.59;;;19.42;42.81
29385;BME280;16367;48.736;9.218;2022-07-18T00:39:27;-23780.38;;;19.44;42.11
29385;BME280;16367;48.736;9.218;2022-07-18T00:41:30;-23781.34;;;19.47;42.63
29385;BME280;16367;48.736;9.218;2022-07-18T00:43:34;-23780.38;;;19.44;42.30
29385;BME280;16367;48.736;9.218;2022-07-18T00:45:37;-23777.88;;;19.36;42.89
29385;BME280;16367;48.736;9.218;2022-07-18T00:47:40;-23778.19;;;19.37;42.86
29385;BME280;16367;48.736;9.218;2022-07-18T00:49:43;-23781.34;;;19.47;40.92
29385;BME280;16367;48.736;9.218;2022-07-18T00:51:46;-23778.81;;;19.39;42.81
29385;BME280;16367;48.736;9.218;2022-07-18T00:53:49;-23778.81;;;19.39;43.42
29385;BME280;16367;48.736;9.218;2022-07-18T00:55:52;-23784.16;;;19.56;40.82
29385;BME280;16367;48.736;9.218;2022-07-18T00:57:56;-23785.72;;;19.61;42.27
29385;BME280;16367;48.736;9.218;2022-07-18T01:00:01;-23788.56;;;19.70;41.06
29385;BME280;16367;48.736;9.218;2022-07-18T01:02:21;-23786.97;;;19.65;42.18
29385;BME280;16367;48.736;9.218;2022-07-18T01:04:24;-23785.09;;;19.59;41.83
29385;BME280;16367;48.736;9.218;2022-07-18T01:06:27;-23782.28;;;19.50;42.90
29385;BME280;16367;48.736;9.218;2022-07-18T01:08:30;-23781.66;;;19.48;43.57
29385;BME280;16367;48.736;9.218;2022-07-18T01:10:34;-23783.84;;;19.55;42.93
29385;BME280;16367;48.736;9.218;2022-07-18T01:12:36;-23779.75;;;19.42;43.55
29385;BME280;16367;48.736;9.218;2022-07-18T01:14:39;-23781.97;;;19.49;42.67
29385;BME280;16367;48.736;9.218;2022-07-18T01:16:43;-23781.34;;;19.47;41.26
29385;BME280;16367;48.736;9.218;2022-07-18T01:18:47;-23781.00;;;19.46;41.77
29385;BME280;16367;48.736;9.218;2022-07-18T01:20:52;-23781.00;;;19.46;41.95
29385;BME280;16367;48.736;9.218;2022-07-18T01:22:55;-23780.06;;;19.43;42.46
29385;BME280;16367;48.736;9.218;2022-07-18T01:24:58;-23776.63;;;19.32;44.08
29385;BME280;16367;48.736;9.218;2022-07-18T01:27:01;-23769.69;;;19.10;45.59
29385;BME280;16367;48.736;9.218;2022-07-18T01:29:04;-23768.13;;;19.05;46.23
29385;BME280;16367;48.736;9.218;2022-07-18T01:31:06;-23763.41;;;18.90;45.27
29385;BME280;16367;48.736;9.218;2022-07-18T01:33:09;-23759.34;;;18.77;46.19
29385;BME280;16367;48.736;9.218;2022-07-18T01:35:12;-23761.84;;;18.85;46.69
29385;BME280;16367;48.736;9.218;2022-07-18T01:37:16;-23758.06;;;18.73;46.85
29385;BME280;16367;48.736;9.218;2022-07-18T01:39:19;-23756.19;;;18.67;47.09
29385;BME280;16367;48.736;9.218;2022-07-18T01:41:22;-23751.94;;;18.53;47.15
29385;BME280;16367;48.736;9.218;2022-07-18T01:43:25;-23750.38;;;18.48;47.76
29385;BME280;16367;48.736;9.218;2022-07-18T01:45:28;-23746.75;;;18.36;48.70
29385;BME280;16367;48.736;9.218;2022-07-18T01:47:31;-23747.69;;;18.39;48.51
29385;BME280;16367;48.736;9.218;2022-07-18T01:49:34;-23744.09;;;18.28;49.22
29385;BME280;16367;48.736;9.218;2022-07-18T01:51:37;-23745.50;;;18.32;49.77
29385;BME280;16367;48.736;9.218;2022-07-18T01:53:42;-23741.25;;;18.19;50.52
29385;BME280;16367;48.736;9.218;2022-07-18T01:55:45;-23737.16;;;18.06;51.09
29385;BME280;16367;48.736;9.218;2022-07-18T01:57:48;-23737.31;;;18.06;51.65
29385;BME280;16367;48.736;9.218;2022-07-18T01:59:50;-23741.72;;;18.20;52.44
29385;BME280;16367;48.736;9.218;2022-07-18T02:01:53;-23739.22;;;18.12;52.84
29385;BME280;16367;48.736;9.218;2022-07-18T02:03:56;-23740.16;;;18.15;53.21
29385;BME280;16367;48.736;9.218;2022-07-18T02:05:59;-23738.56;;;18.10;54.07
29385;BME280;16367;48.736;9.218;2022-07-18T02:08:02;-23735.44;;;18.00;54.64
29385;BME280;16367;48.736;9.218;2022-07-18T02:10:08;-23733.22;;;17.93;55.37
29385;BME280;16367;48.736;9.218;2022-07-18T02:12:11;-23729.31;;;17.80;56.62
29385;BME280;16367;48.736;9.218;2022-07-18T02:14:14;-23729.47;;;17.81;56.71
29385;BME280;16367;48.736;9.218;2022-07-18T02:16:16;-23727.25;;;17.74;58.10
29385;BME280;16367;48.736;9.218;2022-07-18T02:18:19;-23728.50;;;17.78;57.59
29385;BME280;16367;48.736;9.218;2022-07-18T02:20:22;-23728.50;;;17.78;58.36
29385;BME280;16367;48.736;9.218;2022-07-18T02:22:25;-23725.22;;;17.67;59.11
29385;BME280;16367;48.736;9.218;2022-07-18T02:24:27;-23724.59;;;17.65;59.87
29385;BME280;16367;48.736;9.218;2022-07-18T02:26:31;-23724.72;;;17.66;59.60
29385;BME280;16367;48.736;9.218;2022-07-18T02:28:34;-23723.47;;;17.62;60.57
29385;BME280;16367;48.736;9.218;2022-07-18T02:30:37;-23723.16;;;17.61;60.66
29385;BME280;16367;48.736;9.218;2022-07-18T02:32:40;-23719.22;;;17.48;61.43
29385;BME280;16367;48.736;9.218;2022-07-18T02:34:43;-23718.75;;;17.47;61.81
29385;BME280;16367;48.736;9.218;2022-07-18T02:36:46;-23719.69;;;17.50;62.02
29385;BME280;16367;48.736;9.218;2022-07-18T02:38:50;-23717.19;;;17.42;62.33
29385;BME280;16367;48.736;9.218;2022-07-18T02:40:53;-23717.97;;;17.44;61.95
29385;BME280;16367;48.736;9.218;2022-07-18T02:42:57;-23715.13;;;17.35;63.66
29385;BME280;16367;48.736;9.218;2022-07-18T02:45:00;-23713.72;;;17.31;63.56
29385;BME280;16367;48.736;9.218;2022-07-18T02:47:03;-23713.09;;;17.29;63.91
29385;BME280;16367;48.736;9.218;2022-07-18T02:49:06;-23713.41;;;17.30;63.73
29385;BME280;16367;48.736;9.218;2022-07-18T02:51:08;-23713.56;;;17.30;63.67
29385;BME280;16367;48.736;9.218;2022-07-18T02:53:11;-23714.34;;;17.33;63.63
29385;BME280;16367;48.736;9.218;2022-07-18T02:55:14;-23716.88;;;17.41;63.26
29385;BME280;16367;48.736;9.218;2022-07-18T02:57:17;-23719.06;;;17.48;64.08
29385;BME280;16367;48.736;9.218;2022-07-18T02:59:21;-23717.50;;;17.43;63.57
29385;BME280;16367;48.736;9.218;2022-07-18T03:01:23;-23717.03;;;17.41;63.84
29385;BME280;16367;48.736;9.218;2022-07-18T03:03:26;-23717.34;;;17.42;62.25
29385;BME280;16367;48.736;9.218;2022-07-18T03:05:29;-23715.91;;;17.38;63.14
29385;BME280;16367;48.736;9.218;2022-07-18T03:07:32;-23717.50;;;17.43;63.93
29385;BME280;16367;48.736;9.218;2022-07-18T03:09:35;-23716.53;;;17.40;64.03
29385;BME280;16367;48.736;9.218;2022-07-18T03:11:38;-23711.81;;;17.25;63.60
29385;BME280;16367;48.736;9.218;2022-07-18T03:13:41;-23713.09;;;17.29;64.47
29385;BME280;16367;48.736;9.218;2022-07-18T03:15:45;-23709.78;;;17.18;64.09
29385;BME280;16367;48.736;9.218;2022-07-18T03:17:47;-23709.00;;;17.15;64.56
29385;BME280;16367;48.736;9.218;2022-07-18T03:19:50;-23708.53;;;17.14;64.70
29385;BME280;16367;48.736;9.218;2022-07-18T03:21:53;-23710.56;;;17.21;65.54
29385;BME280;16367;48.736;9.218;2022-07-18T03:23:56;-23713.72;;;17.31;65.71
29385;BME280;16367;48.736;9.218;2022-07-18T03:25:59;-23710.56;;;17.21;64.95
29385;BME280;16367;48.736;9.218;2022-07-18T03:28:02;-23708.69;;;17.14;65.75
29385;BME280;16367;48.736;9.218;2022-07-18T03:30:05;-23707.09;;;17.09;65.89
29385;BME280;16367;48.736;9.218;2022-07-18T03:32:10;-23709.47;;;17.17;66.00
29385;BME280;16367;48.736;9.218;2022-07-18T03:34:12;-23706.94;;;17.09;66.75
29385;BME280;16367;48.736;9.218;2022-07-18T03:36:15;-23707.25;;;17.10;66.92
29385;BME280;16367;48.736;9.218;2022-07-18T03:38:18;-23707.56;;;17.11;66.02
29385;BME280;16367;48.736;9.218;2022-07-18T03:40:21;-23705.22;;;17.03;67.46
29385;BME280;16367;48.736;9.218;2022-07-18T03:42:24;-23704.59;;;17.01;66.82
29385;BME280;16367;48.736;9.218;2022-07-18T03:44:26;-23704.91;;;17.02;67.18
29385;BME280;16367;48.736;9.218;2022-07-18T03:46:30;-23703.00;;;16.96;67.79
29385;BME280;16367;48.736;9.218;2022-07-18T03:48:35;-23704.28;;;17.00;68.50
29385;BME280;16367;48.736;9.218;2022-07-18T03:50:37;-23705.53;;;17.04;67.36
29385;BME280;16367;48.736;9.218;2022-07-18T03:52:40;-23707.09;;;17.09;67.87
29385;BME280;16367;48.736;9.218;2022-07-18T03:54:43;-23711.81;;;17.25;67.81
29385;BME280;16367;48.736;9.218;2022-07-18T03:56:46;-23711.50;;;17.24;67.55
29385;BME280;16367;48.736;9.218;2022-07-18T03:58:48;-23713.72;;;17.31;66.19
29385;BME280;16367;48.736;9.218;2022-07-18T04:00:51;-23716.53;;;17.40;66.89
29385;BME280;16367;48.736;9.218;2022-07-18T04:02:54;-23717.66;;;17.43;66.36
29385;BME280;16367;48.736;9.218;2022-07-18T04:05:07;-23718.13;;;17.45;65.77
29385;BME280;16367;48.736;9.218;2022-07-18T04:07:10;-23716.88;;;17.41;65.67
29385;BME280;16367;48.736;9.218;2022-07-18T04:09:13;-23715.44;;;17.36;66.98
29385;BME280;16367;48.736;9.218;2022-07-18T04:11:15;-23710.88;;;17.22;67.70
29385;BME280;16367;48.736;9.218;2022-07-18T04:13:23;-23714.34;;;17.33;67.39
29385;BME280;16367;48.736;9.218;2022-07-18T04:15:26;-23713.56;;;17.30;67.77
29385;BME280;16367;48.736;9.218;2022-07-18T04:17:28;-23712.47;;;17.27;67.60
29385;BME280;16367;48.736;9.218;2022-07-18T04:19:31;-23711.19;;;17.23;67.79
29385;BME280;16367;48.736;9.218;2022-07-18T04:21:37;-23724.44;;;17.65;67.13
29385;BME280;16367;48.736;9.218;2022-07-18T04:23:41;-23740.47;;;18.16;64.61
29385;BME280;16367;48.736;9.218;2022-07-18T04:25:44;-23746.75;;;18.36;63.40
29385;BME280;16367;48.736;9.218;2022-07-18T04:27:47;-23758.72;;;18.75;61.76
29385;BME280;16367;48.736;9.218;2022-07-18T04:29:50;-23755.09;;;18.63;61.86
29385;BME280;16367;48.736;9.218;2022-07-18T04:31:53;-23783.84;;;19.55;59.76
29385;BME280;16367;48.736;9.218;2022-07-18T04:33:56;-23787.63;;;19.67;58.41
29385;BME280;16367;48.736;9.218;2022-07-18T04:35:59;-23808.31;;;20.34;56.40
29385;BME280;16367;48.736;9.218;2022-07-18T04:38:03;-23818.53;;;20.66;54.98
29385;BME280;16367;48.736;9.218;2022-07-18T04:40:08;-23833.75;;;21.15;53.71
29385;BME280;16367;48.736;9.218;2022-07-18T04:42:11;-23845.97;;;21.54;52.27
29385;BME280;16367;48.736;9.218;2022-07-18T04:44:14;-23855.69;;;21.86;51.39
29385;BME280;16367;48.736;9.218;2022-07-18T04:46:17;-23845.97;;;21.54;52.12
29385;BME280;16367;48.736;9.218;2022-07-18T04:48:19;-23868.34;;;22.26;50.93
29385;BME280;16367;48.736;9.218;2022-07-18T04:50:23;-23876.34;;;22.52;49.71
29385;BME280;16367;48.736;9.218;2022-07-18T04:52:26;-23885.13;;;22.80;49.23
29385;BME280;16367;48.736;9.218;2022-07-18T04:54:30;-23893.09;;;23.06;47.90
29385;BME280;16367;48.736;9.218;2022-07-18T04:56:33;-23892.94;;;23.06;48.29
29385;BME280;16367;48.736;9.218;2022-07-18T04:58:35;-23891.69;;;23.02;47.32
29385;BME280;16367;48.736;9.218;2022-07-18T05:00:38;-23880.56;;;22.66;48.79
29385;BME280;16367;48.736;9.218;2022-07-18T05:02:41;-23878.22;;;22.58;49.20
29385;BME280;16367;48.736;9.218;2022-07-18T05:04:44;-23871.97;;;22.38;49.27
29385;BME280;16367;48.736;9.218;2022-07-18T05:06:47;-23872.59;;;22.40;49.97
29385;BME280;16367;48.736;9.218;2022-07-18T05:08:49;-23854.56;;;21.82;50.01
29385;BME280;16367;48.736;9.218;2022-07-18T05:10:53;-23836.09;;;21.23;52.26
29385;BME280;16367;48.736;9.218;2022-07-18T05:12:56;-23849.41;;;21.66;51.99
29385;BME280;16367;48.736;9.218;2022-07-18T05:14:59;-23861.16;;;22.03;51.11
29385;BME280;16367;48.736;9.218;2022-07-18T05:17:03;-23879.47;;;22.62;50.16
29385;BME280;16367;48.736;9.218;2022-07-18T05:19:06;-23887.31;;;22.87;49.58
29385;BME280;16367;48.736;9.218;2022-07-18T05:21:09;-23900.28;;;23.29;48.97
29385;BME280;16367;48.736;9.218;2022-07-18T05:23:13;-23875.09;;;22.48;50.20
29385;BME280;16367;48.736;9.218;2022-07-18T05:25:18;-23855.53;;;21.85;52.46
29385;BME280;16367;48.736;9.218;2022-07-18T05:27:22;-23881.97;;;22.70;50.78
29385;BME280;16367;48.736;9.218;2022-07-18T05:29:25;-23890.44;;;22.97;50.16
29385;BME280;16367;48.736;9.218;2022-07-18T05:31:28;-23907.00;;;23.51;48.57
29385;BME280;16367;48.736;9.218;2022-07-18T05:33:31;-23922.31;;;24.00;48.09
29385;BME280;16367;48.736;9.218;2022-07-18T05:35:37;-23884.47;;;22.78;49.47
29385;BME280;16367;48.736;9.218;2022-07-18T05:37:40;-23885.28;;;22.81;50.59
29385;BME280;16367;48.736;9.218;2022-07-18T05:39:43;-23849.72;;;21.67;52.72
29385;BME280;16367;48.736;9.218;2022-07-18T05:41:46;-23822.44;;;20.79;55.45
29385;BME280;16367;48.736;9.218;2022-07-18T05:43:50;-23822.91;;;20.80;56.29
29385;BME280;16367;48.736;9.218;2022-07-18T05:45:53;-23826.84;;;20.93;55.66
29385;BME280;16367;48.736;9.218;2022-07-18T05:47:56;-23819.63;;;20.70;56.17
29385;BME280;16367;48.736;9.218;2022-07-18T05:49:58;-23832.16;;;21.10;55.17
29385;BME280;16367;48.736;9.218;2022-07-18T05:52:01;-23875.09;;;22.48;51.50
29385;BME280;16367;48.736;9.218;2022-07-18T05:54:04;-23867.09;;;22.22;52.54
29385;BME280;16367;48.736;9.218;2022-07-18T05:56:08;-23863.50;;;22.11;53.03
29385;BME280;16367;48.736;9.218;2022-07-18T05:58:11;-23856.94;;;21.90;53.26
29385;BME280;16367;48.736;9.218;2022-07-18T06:00:16;-23857.56;;;21.92;52.90
29385;BME280;16367;48.736;9.218;2022-07-18T06:02:19;-23829.97;;;21.03;53.34
29385;BME280;16367;48.736;9.218;2022-07-18T06:04:22;-23832.81;;;21.12;54.09
29385;BME280;16367;48.736;9.218;2022-07-18T06:06:25;-23844.25;;;21.49;52.96
29385;BME280;16367;48.736;9.218;2022-07-18T06:08:28;-23850.66;;;21.70;52.41
29385;BME280;16367;48.736;9.218;2022-07-18T06:10:30;-23878.22;;;22.58;49.82
29385;BME280;16367;48.736;9.218;2022-07-18T06:12:33;-23876.81;;;22.54;49.02
29385;BME280;16367;48.736;9.218;2022-07-18T06:14:36;-23890.75;;;22.98;47.36
29385;BME280;16367;48.736;9.218;2022-07-18T06:16:41;-23905.13;;;23.45;45.88
29385;BME280;16367;48.736;9.218;2022-07-18T06:18:44;-23892.31;;;23.04;47.36
29385;BME280;16367;48.736;9.218;2022-07-18T06:20:46;-23867.41;;;22.23;48.86
29385;BME280;16367;48.736;9.218;2022-07-18T06:22:49;-23886.38;;;22.84;45.69
29385;BME280;16367;48.736;9.218;2022-07-18T06:24:52;-23866.63;;;22.21;46.15
29385;BME280;16367;48.736;9.218;2022-07-18T06:26:54;-23876.19;;;22.52;43.82
29385;BME280;16367;48.736;9.218;2022-07-18T06:28:57;-23878.84;;;22.60;43.95
29385;BME280;16367;48.736;9.218;2022-07-18T06:31:01;-23882.28;;;22.71;44.80
29385;BME280;16367;48.736;9.218;2022-07-18T06:33:05;-23920.59;;;23.95;42.59
29385;BME280;16367;48.736;9.218;2022-07-18T06:35:09;-23949.19;;;24.87;39.95
29385;BME280;16367;48.736;9.218;2022-07-18T06:37:12;-23957.63;;;25.14;40.21
29385;BME280;16367;48.736;9.218;2022-07-18T06:39:14;-23932.94;;;24.34;42.70
29385;BME280;16367;48.736;9.218;2022-07-18T06:41:19;-23965.41;;;25.39;40.39
29385;BME280;16367;48.736;9.218;2022-07-18T06:43:22;-23964.94;;;25.38;40.95
29385;BME280;16367;48.736;9.218;2022-07-18T06:45:25;-23981.31;;;25.91;39.28
29385;BME280;16367;48.736;9.218;2022-07-18T06:47:28;-23984.75;;;26.02;39.67
29385;BME280;16367;48.736;9.218;2022-07-18T06:49:32;-23965.56;;;25.40;40.70
29385;BME280;16367;48.736;9.218;2022-07-18T06:51:35;-23958.56;;;25.17;41.75
29385;BME280;16367;48.736;9.218;2022-07-18T06:53:38;-23973.69;;;25.66;39.78
29385;BME280;16367;48.736;9.218;2022-07-18T06:55:40;-23989.44;;;26.17;38.81
29385;BME280;16367;48.736;9.218;2022-07-18T06:57:43;-23964.78;;;25.37;39.80
29385;BME280;16367;48.736;9.218;2022-07-18T06:59:46;-23978.38;;;25.81;39.35
29385;BME280;16367;48.736;9.218;2022-07-18T07:01:55;-23990.06;;;26.19;39.16
29385;BME280;16367;48.736;9.218;2022-07-18T07:03:58;-23976.03;;;25.73;40.17
29385;BME280;16367;48.736;9.218;2022-07-18T07:06:02;-23975.09;;;25.70;40.16
29385;BME280;16367;48.736;9.218;2022-07-18T07:08:04;-23993.78;;;26.31;39.61
29385;BME280;16367;48.736;9.218;2022-07-18T07:10:07;-24008.44;;;26.78;38.60
29385;BME280;16367;48.736;9.218;2022-07-18T07:12:10;-23983.19;;;25.97;40.69
29385;BME280;16367;48.736;9.218;2022-07-18T07:14:13;-24001.44;;;26.55;40.19
29385;BME280;16367;48.736;9.218;2022-07-18T07:16:15;-24034.13;;;27.61;38.05
29385;BME280;16367;48.736;9.218;2022-07-18T07:18:18;-24029.94;;;27.48;37.58
29385;BME280;16367;48.736;9.218;2022-07-18T07:20:21;-24086.19;;;29.30;34.38
29385;BME280;16367;48.736;9.218;2022-07-18T07:22:26;-24048.59;;;28.08;36.59
29385;BME280;16367;48.736;9.218;2022-07-18T07:24:28;-24067.56;;;28.69;36.04
29385;BME280;16367;48.736;9.218;2022-07-18T07:26:31;-24072.69;;;28.86;35.64
29385;BME280;16367;48.736;9.218;2022-07-18T07:28:34;-24031.19;;;27.52;36.54
29385;BME280;16367;48.736;9.218;2022-07-18T07:30:38;-24051.72;;;28.18;36.52
29385;BME280;16367;48.736;9.218;2022-07-18T07:32:42;-24010.63;;;26.85;39.65
29385;BME280;16367;48.736;9.218;2022-07-18T07:34:45;-24007.34;;;26.75;38.09
29385;BME280;16367;48.736;9.218;2022-07-18T07:36:48;-24071.59;;;28.83;36.98
29385;BME280;16367;48.736;9.218;2022-07-18T07:38:52;-24047.34;;;28.04;36.31
29385;BME280;16367;48.736;9.218;2022-07-18T07:40:55;-24114.75;;;30.23;33.64
29385;BME280;16367;48.736;9.218;2022-07-18T07:43:05;-24113.81;;;30.19;33.28
29385;BME280;16367;48.736;9.218;2022-07-18T07:45:10;-24092.72;;;29.51;35.51
29385;BME280;16367;48.736;9.218;2022-07-18T07:47:13;-24085.25;;;29.27;33.88
29385;BME280;16367;48.736;9.218;2022-07-18T07:49:15;-24126.53;;;30.61;34.11
29385;BME280;16367;48.736;9.218;2022-07-18T07:51:18;-24062.59;;;28.53;36.91
29385;BME280;16367;48.736;9.218;2022-07-18T07:53:26;-24080.91;;;29.13;35.02
29385;BME280;16367;48.736;9.218;2022-07-18T07:55:30;-24148.53;;;31.32;32.42
29385;BME280;16367;48.736;9.218;2022-07-18T07:57:33;-24137.53;;;30.97;32.50
29385;BME280;16367;48.736;9.218;2022-07-18T07:59:37;-24115.38;;;30.25;34.48
29385;BME280;16367;48.736;9.218;2022-07-18T08:01:40;-24126.53;;;30.61;33.23
29385;BME280;16367;48.736;9.218;2022-07-18T08:03:43;-24078.13;;;29.04;35.83
29385;BME280;16367;48.736;9.218;2022-07-18T08:05:48;-24091.16;;;29.46;34.08
29385;BME280;16367;48.736;9.218;2022-07-18T08:07:51;-24093.81;;;29.55;35.23
29385;BME280;16367;48.736;9.218;2022-07-18T08:09:54;-24150.53;;;31.39;33.27
29385;BME280;16367;48.736;9.218;2022-07-18T08:11:58;-24154.25;;;31.51;31.97
29385;BME280;16367;48.736;9.218;2022-07-18T08:14:01;-24178.41;;;32.29;32.04
29385;BME280;16367;48.736;9.218;2022-07-18T08:16:04;-24163.69;;;31.82;32.17
29385;BME280;16367;48.736;9.218;2022-07-18T08:18:07;-24193.56;;;32.79;30.78
29385;BME280;16367;48.736;9.218;2022-07-18T08:20:10;-24202.22;;;33.07;31.29
29385;BME280;16367;48.736;9.218;2022-07-18T08:22:13;-24208.06;;;33.26;29.83
29385;BME280;16367;48.736;9.218;2022-07-18T08:24:16;-24124.97;;;30.56;34.69
29385;BME280;16367;48.736;9.218;2022-07-18T08:26:19;-24123.13;;;30.50;33.23
29385;BME280;16367;48.736;9.218;2022-07-18T08:28:23;-24136.47;;;30.93;33.57
29385;BME280;16367;48.736;9.218;2022-07-18T08:30:27;-24130.09;;;30.72;33.22
29385;BME280;16367;48.736;9.218;2022-07-18T08:32:30;-24138.00;;;30.98;32.49
29385;BME280;16367;48.736;9.218;2022-07-18T08:34:32;-24153.50;;;31.48;33.01
29385;BME280;16367;48.736;9.218;2022-07-18T08:36:35;-24142.97;;;31.14;33.22
29385;BME280;16367;48.736;9.218;2022-07-18T08:38:40;-24209.78;;;33.32;30.66
29385;BME280;16367;48.736;9.218;2022-07-18T08:40:44;-24223.22;;;33.75;29.83
29385;BME280;16367;48.736;9.218;2022-07-18T08:42:51;-24186.91;;;32.57;30.08
29385;BME280;16367;48.736;9.218;2022-07-18T08:45:15;-24142.34;;;31.12;32.62
29385;BME280;16367;48.736;9.218;2022-07-18T08:47:19;-24176.09;;;32.22;31.94
29385;BME280;16367;48.736;9.218;2022-07-18T08:49:30;-24224.91;;;33.81;29.20
29385;BME280;16367;48.736;9.218;2022-07-18T08:51:34;-24274.88;;;35.44;27.84
29385;BME280;16367;48.736;9.218;2022-07-18T08:53:37;-24256.69;;;34.85;28.01
29385;BME280;16367;48.736;9.218;2022-07-18T08:55:40;-24291.34;;;35.98;26.68
29385;BME280;16367;48.736;9.218;2022-07-18T08:57:42;-24272.09;;;35.35;28.14
29385;BME280;16367;48.736;9.218;2022-07-18T08:59:45;-24197.56;;;32.92;29.70
29385;BME280;16367;48.736;9.218;2022-07-18T09:01:49;-24182.13;;;32.42;31.53
29385;BME280;16367;48.736;9.218;2022-07-18T09:03:52;-24280.41;;;35.62;27.88
29385;BME280;16367;48.736;9.218;2022-07-18T09:06:10;-24262.25;;;35.03;27.31
29385;BME280;16367;48.736;9.218;2022-07-18T09:08:15;-24235.41;;;34.15;28.78
29385;BME280;16367;48.736;9.218;2022-07-18T09:10:18;-24302.88;;;36.36;27.16
29385;BME280;16367;48.736;9.218;2022-07-18T09:12:21;-24268.09;;;35.22;27.32
29385;BME280;16367;48.736;9.218;2022-07-18T09:14:34;-24263.47;;;35.07;27.22
29385;BME280;16367;48.736;9.218;2022-07-18T09:16:39;-24209.16;;;33.30;29.49
29385;BME280;16367;48.736;9.218;2022-07-18T09:18:45;-24259.16;;;34.93;28.23
29385;BME280;16367;48.736;9.218;2022-07-18T09:20:57;-24238.50;;;34.25;26.98
29385;BME280;16367;48.736;9.218;2022-07-18T09:23:12;-24264.09;;;35.09;27.21
29385;BME280;16367;48.736;9.218;2022-07-18T09:25:16;-24258.84;;;34.92;26.22
29385;BME280;16367;48.736;9.218;2022-07-18T09:27:29;-24223.69;;;33.77;27.25
29385;BME280;16367;48.736;9.218;2022-07-18T09:29:32;-24211.63;;;33.38;28.63
29385;BME280;16367;48.736;9.218;2022-07-18T09:31:39;-24211.16;;;33.36;28.03
29385;BME280;16367;48.736;9.218;2022-07-18T09:33:52;-24269.00;;;35.25;24.68
29385;BME280;16367;48.736;9.218;2022-07-18T09:35:55;-24271.63;;;35.34;25.57
29385;BME280;16367;48.736;9.218;2022-07-18T09:38:01;-24177.94;;;32.28;28.12
29385;BME280;16367;48.736;9.218;2022-07-18T09:40:15;-24216.56;;;33.54;27.63
29385;BME280;16367;48.736;9.218;2022-07-18T09:42:20;-24211.47;;;33.37;28.08
29385;BME280;16367;48.736;9.218;2022-07-18T09:44:23;-24228.16;;;33.92;26.46
29385;BME280;16367;48.736;9.218;2022-07-18T09:46:26;-24279.78;;;35.60;24.69
29385;BME280;16367;48.736;9.218;2022-07-18T09:48:29;-24252.06;;;34.70;25.11
29385;BME280;16367;48.736;9.218;2022-07-18T09:50:34;-24221.50;;;33.70;26.33
29385;BME280;16367;48.736;9.218;2022-07-18T09:52:37;-24266.53;;;35.17;25.23
29385;BME280;16367;48.736;9.218;2022-07-18T09:54:43;-24257.91;;;34.89;25.68
29385;BME280;16367;48.736;9.218;2022-07-18T09:56:46;-24253.28;;;34.74;26.90
29385;BME280;16367;48.736;9.218;2022-07-18T09:58:51;-24255.44;;;34.81;27.67
29385;BME280;16367;48.736;9.218;2022-07-18T10:00:57;-24292.41;;;36.02;24.83
29385;BME280;16367;48.736;9.218;2022-07-18T10:03:01;-24272.09;;;35.35;25.16
29385;BME280;16367;48.736;9.218;2022-07-18T10:05:05;-24270.56;;;35.30;24.61
29385;BME280;16367;48.736;9.218;2022-07-18T10:07:12;-24144.97;;;31.21;28.85
29385;BME280;16367;48.736;9.218;2022-07-18T10:09:15;-24186.13;;;32.55;28.96
29385;BME280;16367;48.736;9.218;2022-07-18T10:11:18;-24243.72;;;34.42;26.87
29385;BME280;16367;48.736;9.218;2022-07-18T10:13:22;-24281.47;;;35.66;25.83
29385;BME280;16367;48.736;9.218;2022-07-18T10:15:27;-24263.16;;;35.06;25.02
29385;BME280;16367;48.736;9.218;2022-07-18T10:17:31;-24265.31;;;35.13;25.15
29385;BME280;16367;48.736;9.218;2022-07-18T10:19:40;-24177.63;;;32.27;27.84
29385;BME280;16367;48.736;9.218;2022-07-18T10:21:46;-24292.41;;;36.02;24.69
29385;BME280;16367;48.736;9.218;2022-07-18T10:23:51;-24319.34;;;36.90;23.66
29385;BME280;16367;48.736;9.218;2022-07-18T10:26:06;-24247.13;;;34.54;25.08
29385;BME280;16367;48.736;9.218;2022-07-18T10:28:11;-24282.56;;;35.69;24.51
29385;BME280;16367;48.736;9.218;2022-07-18T10:30:15;-24214.41;;;33.47;26.24
29385;BME280;16367;48.736;9.218;2022-07-18T10:32:31;-24234.03;;;34.11;25.61
29385;BME280;16367;48.736;9.218;2022-07-18T10:34:36;-24211.78;;;33.38;25.86
29385;BME280;16367;48.736;9.218;2022-07-18T10:36:42;-24198.66;;;32.95;25.92
29385;BME280;16367;48.736;9.218;2022-07-18T10:39:08;-24182.72;;;32.44;27.11
29385;BME280;16367;48.736;9.218;2022-07-18T10:41:12;-24198.03;;;32.93;26.39
29385;BME280;16367;48.736;9.218;2022-07-18T10:43:31;-24192.47;;;32.75;26.33
29385;BME280;16367;48.736;9.218;2022-07-18T10:45:42;-24197.88;;;32.93;26.22
29385;BME280;16367;48.736;9.218;2022-07-18T10:47:46;-24172.06;;;32.09;27.26